sensor_id;sensor_type;location;lat;lon;timestamp;P1;durP1;ratioP1;P2;durP2;ratioP2
13234;SDS011;6683;48.506;9.050;2022-07-22T00:01:55;4.60;;;4.20;;
13234;SDS011;6683;48.506;9.050;2022-07-22T00:04:57;5.00;;;4.50;;
13234;SDS011;6683;48.506;9.050;2022-07-22T00:08:01;4.77;;;4.37;;
13234;SDS011;6683;48.506;9.050;2022-07-22T00:11:04;4.73;;;4.33;;
13234;SDS011;6683;48.506;9.050;2022-07-22T00:14:07;5.40;;;4.30;;
13234;SDS011;6683;48.506;9.050;2022-07-22T00:17:09;4.53;;;4.13;;
13234;SDS011;6683;48.506;9.050;2022-07-22T00:20:11;5.47;;;4.40;;
13234;SDS011;6683;48.506;9.050;2022-07-22T00:23:15;4.90;;;3.90;;
13234;SDS011;6683;48.506;9.050;2022-07-22T00:26:17;4.53;;;4.13;;
13234;SDS011;6683;48.506;9.050;2022-07-22T00:29:20;5.33;;;4.83;;
13234;SDS011;6683;48.506;9.050;2022-07-22T00:32:22;4.97;;;4.47;;
13234;SDS011;6683;48.506;9.050;2022-07-22T00:35:25;6.77;;;4.50;;
13234;SDS011;6683;48.506;9.050;2022-07-22T00:38:30;4.90;;;4.37;;
13234;SDS011;6683;48.506;9.050;2022-07-22T00:41:32;4.87;;;4.47;;
13234;SDS011;6683;48.506;9.050;2022-07-22T00:44:34;5.13;;;4.73;;
13234;SDS011;6683;48.506;9.050;2022-07-22T00:47:37;4.93;;;4.53;;
13234;SDS011;6683;48.506;9.050;2022-07-22T00:50:39;7.33;;;4.70;;
13234;SDS011;6683;48.506;9.050;2022-07-22T00:53:43;5.30;;;4.80;;
13234;SDS011;6683;48.506;9.050;2022-07-22T00:56:47;4.90;;;4.50;;
13234;SDS011;6683;48.506;9.050;2022-07-22T00:59:50;5.97;;;5.47;;
13234;SDS011;6683;48.506;9.050;2022-07-22T01:02:53;4.70;;;4.30;;
13234;SDS011;6683;48.506;9.050;2022-07-22T01:05:55;5.20;;;4.67;;
13234;SDS011;6683;48.506;9.050;2022-07-22T01:08:59;5.10;;;4.60;;
13234;SDS011;6683;48.506;9.050;2022-07-22T01:12:02;6.20;;;4.87;;
13234;SDS011;6683;48.506;9.050;2022-07-22T01:15:06;5.47;;;4.97;;
13234;SDS011;6683;48.506;9.050;2022-07-22T01:18:09;5.30;;;4.80;;
13234;SDS011;6683;48.506;9.050;2022-07-22T01:21:13;5.53;;;5.03;;
13234;SDS011;6683;48.506;9.050;2022-07-22T01:24:17;5.00;;;4.60;;
13234;SDS011;6683;48.506;9.050;2022-07-22T01:27:19;4.90;;;4.50;;
13234;SDS011;6683;48.506;9.050;2022-07-22T01:30:21;5.57;;;5.07;;
13234;SDS011;6683;48.506;9.050;2022-07-22T01:33:24;5.97;;;4.40;;
13234;SDS011;6683;48.506;9.050;2022-07-22T01:36:28;6.07;;;4.90;;
13234;SDS011;6683;48.506;9.050;2022-07-22T01:39:31;5.70;;;4.53;;
13234;SDS011;6683;48.506;9.050;2022-07-22T01:42:33;5.27;;;4.77;;
13234;SDS011;6683;48.506;9.050;2022-07-22T01:45:35;5.33;;;4.50;;
13234;SDS011;6683;48.506;9.050;2022-07-22T01:48:39;5.17;;;4.77;;
13234;SDS011;6683;48.506;9.050;2022-07-22T01:51:44;4.63;;;4.23;;
13234;SDS011;6683;48.506;9.050;2022-07-22T01:54:46;4.90;;;4.47;;
13234;SDS011;6683;48.506;9.050;2022-07-22T01:57:49;4.57;;;4.17;;
13234;SDS011;6683;48.506;9.050;2022-07-22T02:00:51;5.37;;;4.87;;
13234;SDS011;6683;48.506;9.050;2022-07-22T02:03:54;5.03;;;4.63;;
13234;SDS011;6683;48.506;9.050;2022-07-22T02:06:58;5.87;;;4.37;;
13234;SDS011;6683;48.506;9.050;2022-07-22T02:10:00;5.40;;;4.90;;
13234;SDS011;6683;48.506;9.050;2022-07-22T02:13:03;6.00;;;4.90;;
13234;SDS011;6683;48.506;9.050;2022-07-22T02:16:05;5.20;;;4.80;;
13234;SDS011;6683;48.506;9.050;2022-07-22T02:19:08;5.00;;;4.60;;
13234;SDS011;6683;48.506;9.050;2022-07-22T02:22:11;5.93;;;4.77;;
13234;SDS011;6683;48.506;9.050;2022-07-22T02:25:14;5.03;;;4.63;;
13234;SDS011;6683;48.506;9.050;2022-07-22T02:28:17;5.27;;;4.77;;
13234;SDS011;6683;48.506;9.050;2022-07-22T02:31:19;5.10;;;4.67;;
13234;SDS011;6683;48.506;9.050;2022-07-22T02:34:22;5.37;;;4.87;;
13234;SDS011;6683;48.506;9.050;2022-07-22T02:37:26;4.73;;;4.33;;
13234;SDS011;6683;48.506;9.050;2022-07-22T02:40:29;5.30;;;4.83;;
13234;SDS011;6683;48.506;9.050;2022-07-22T02:43:31;6.90;;;4.93;;
13234;SDS011;6683;48.506;9.050;2022-07-22T02:46:34;4.63;;;4.27;;
13234;SDS011;6683;48.506;9.050;2022-07-22T02:49:36;5.60;;;5.10;;
13234;SDS011;6683;48.506;9.050;2022-07-22T02:52:40;5.40;;;4.73;;
13234;SDS011;6683;48.506;9.050;2022-07-22T02:55:43;5.57;;;5.07;;
13234;SDS011;6683;48.506;9.050;2022-07-22T02:58:45;5.00;;;4.57;;
13234;SDS011;6683;48.506;9.050;2022-07-22T03:01:47;4.87;;;4.47;;
13234;SDS011;6683;48.506;9.050;2022-07-22T03:04:50;4.57;;;4.20;;
13234;SDS011;6683;48.506;9.050;2022-07-22T03:07:54;4.57;;;4.17;;
13234;SDS011;6683;48.506;9.050;2022-07-22T03:10:56;5.50;;;5.00;;
13234;SDS011;6683;48.506;9.050;2022-07-22T03:13:59;5.33;;;4.83;;
13234;SDS011;6683;48.506;9.050;2022-07-22T03:17:01;5.10;;;4.67;;
13234;SDS011;6683;48.506;9.050;2022-07-22T03:20:04;5.50;;;5.00;;
13234;SDS011;6683;48.506;9.050;2022-07-22T03:23:11;5.47;;;4.70;;
13234;SDS011;6683;48.506;9.050;2022-07-22T03:26:13;5.23;;;4.73;;
13234;SDS011;6683;48.506;9.050;2022-07-22T03:29:16;5.57;;;5.00;;
13234;SDS011;6683;48.506;9.050;2022-07-22T03:32:18;5.27;;;4.87;;
13234;SDS011;6683;48.506;9.050;2022-07-22T03:35:21;5.30;;;4.47;;
13234;SDS011;6683;48.506;9.050;2022-07-22T03:38:25;5.10;;;4.60;;
13234;SDS011;6683;48.506;9.050;2022-07-22T03:41:27;5.10;;;4.60;;
13234;SDS011;6683;48.506;9.050;2022-07-22T03:44:29;5.23;;;4.70;;
13234;SDS011;6683;48.506;9.050;2022-07-22T03:47:32;5.87;;;5.37;;
13234;SDS011;6683;48.506;9.050;2022-07-22T03:50:35;5.40;;;4.90;;
13234;SDS011;6683;48.506;9.050;2022-07-22T03:53:39;6.63;;;5.23;;
13234;SDS011;6683;48.506;9.050;2022-07-22T03:56:42;5.33;;;4.83;;
13234;SDS011;6683;48.506;9.050;2022-07-22T03:59:44;5.80;;;5.07;;
13234;SDS011;6683;48.506;9.050;2022-07-22T04:02:46;5.23;;;4.73;;
13234;SDS011;6683;48.506;9.050;2022-07-22T04:05:49;5.10;;;4.70;;
13234;SDS011;6683;48.506;9.050;2022-07-22T04:08:52;5.17;;;4.77;;
13234;SDS011;6683;48.506;9.050;2022-07-22T04:11:56;5.70;;;5.20;;
13234;SDS011;6683;48.506;9.050;2022-07-22T04:14:59;5.20;;;4.70;;
13234;SDS011;6683;48.506;9.050;2022-07-22T04:18:01;5.20;;;4.63;;
13234;SDS011;6683;48.506;9.050;2022-07-22T04:21:04;5.63;;;5.13;;
13234;SDS011;6683;48.506;9.050;2022-07-22T04:24:08;5.70;;;5.10;;
13234;SDS011;6683;48.506;9.050;2022-07-22T04:27:10;7.37;;;5.27;;
13234;SDS011;6683;48.506;9.050;2022-07-22T04:30:13;5.83;;;5.33;;
13234;SDS011;6683;48.506;9.050;2022-07-22T04:33:15;7.63;;;6.10;;
13234;SDS011;6683;48.506;9.050;2022-07-22T04:36:18;5.83;;;5.23;;
13234;SDS011;6683;48.506;9.050;2022-07-22T04:39:22;6.40;;;5.27;;
13234;SDS011;6683;48.506;9.050;2022-07-22T04:42:24;5.83;;;5.30;;
13234;SDS011;6683;48.506;9.050;2022-07-22T04:45:27;6.00;;;5.20;;
13234;SDS011;6683;48.506;9.050;2022-07-22T04:48:29;6.03;;;4.53;;
13234;SDS011;6683;48.506;9.050;2022-07-22T04:51:32;7.13;;;5.43;;
13234;SDS011;6683;48.506;9.050;2022-07-22T04:54:36;6.10;;;5.50;;
13234;SDS011;6683;48.506;9.050;2022-07-22T04:57:38;5.73;;;5.00;;
13234;SDS011;6683;48.506;9.050;2022-07-22T05:00:41;5.77;;;5.03;;
13234;SDS011;6683;48.506;9.050;2022-07-22T05:03:43;6.17;;;5.57;;
13234;SDS011;6683;48.506;9.050;2022-07-22T05:06:45;6.00;;;5.47;;
13234;SDS011;6683;48.506;9.050;2022-07-22T05:09:50;6.17;;;5.57;;
13234;SDS011;6683;48.506;9.050;2022-07-22T05:12:52;6.97;;;6.30;;
13234;SDS011;6683;48.506;9.050;2022-07-22T05:15:55;6.73;;;6.03;;
13234;SDS011;6683;48.506;9.050;2022-07-22T05:18:57;6.67;;;6.17;;
13234;SDS011;6683;48.506;9.050;2022-07-22T05:21:59;8.67;;;6.53;;
13234;SDS011;6683;48.506;9.050;2022-07-22T05:25:04;6.57;;;6.07;;
13234;SDS011;6683;48.506;9.050;2022-07-22T05:28:07;7.20;;;6.53;;
13234;SDS011;6683;48.506;9.050;2022-07-22T05:31:10;6.93;;;6.33;;
13234;SDS011;6683;48.506;9.050;2022-07-22T05:34:12;6.63;;;6.07;;
13234;SDS011;6683;48.506;9.050;2022-07-22T05:37:15;7.13;;;6.43;;
13234;SDS011;6683;48.506;9.050;2022-07-22T05:40:19;6.57;;;5.93;;
13234;SDS011;6683;48.506;9.050;2022-07-22T05:43:22;7.17;;;6.47;;
13234;SDS011;6683;48.506;9.050;2022-07-22T05:46:24;6.77;;;6.20;;
13234;SDS011;6683;48.506;9.050;2022-07-22T05:49:26;7.30;;;6.27;;
13234;SDS011;6683;48.506;9.050;2022-07-22T05:52:29;6.63;;;6.03;;
13234;SDS011;6683;48.506;9.050;2022-07-22T05:55:33;7.10;;;6.40;;
13234;SDS011;6683;48.506;9.050;2022-07-22T05:58:36;6.63;;;6.03;;
13234;SDS011;6683;48.506;9.050;2022-07-22T06:01:39;6.47;;;5.93;;
13234;SDS011;6683;48.506;9.050;2022-07-22T06:04:41;6.73;;;6.10;;
13234;SDS011;6683;48.506;9.050;2022-07-22T06:07:43;6.20;;;5.70;;
13234;SDS011;6683;48.506;9.050;2022-07-22T06:10:47;7.63;;;6.27;;
13234;SDS011;6683;48.506;9.050;2022-07-22T06:13:50;6.50;;;5.83;;
13234;SDS011;6683;48.506;9.050;2022-07-22T06:16:52;7.53;;;6.85;;
13234;SDS011;6683;48.506;9.050;2022-07-22T06:19:55;6.13;;;5.63;;
13234;SDS011;6683;48.506;9.050;2022-07-22T06:22:57;5.83;;;5.33;;
13234;SDS011;6683;48.506;9.050;2022-07-22T06:26:01;5.90;;;5.30;;
13234;SDS011;6683;48.506;9.050;2022-07-22T06:29:04;8.17;;;6.33;;
13234;SDS011;6683;48.506;9.050;2022-07-22T06:32:06;6.73;;;5.90;;
13234;SDS011;6683;48.506;9.050;2022-07-22T06:35:09;6.33;;;5.80;;
13234;SDS011;6683;48.506;9.050;2022-07-22T06:38:11;6.70;;;6.10;;
13234;SDS011;6683;48.506;9.050;2022-07-22T06:41:15;6.77;;;6.17;;
13234;SDS011;6683;48.506;9.050;2022-07-22T06:44:19;7.00;;;6.03;;
13234;SDS011;6683;48.506;9.050;2022-07-22T06:47:21;7.17;;;6.50;;
13234;SDS011;6683;48.506;9.050;2022-07-22T06:50:24;7.30;;;6.60;;
13234;SDS011;6683;48.506;9.050;2022-07-22T06:53:27;6.93;;;6.32;;
13234;SDS011;6683;48.506;9.050;2022-07-22T06:56:31;7.32;;;6.50;;
13234;SDS011;6683;48.506;9.050;2022-07-22T06:59:33;6.97;;;6.05;;
13234;SDS011;6683;48.506;9.050;2022-07-22T07:02:35;6.72;;;6.13;;
13234;SDS011;6683;48.506;9.050;2022-07-22T07:05:38;7.68;;;6.25;;
13234;SDS011;6683;48.506;9.050;2022-07-22T07:08:40;7.10;;;6.50;;
13234;SDS011;6683;48.506;9.050;2022-07-22T07:11:44;7.25;;;6.60;;
13234;SDS011;6683;48.506;9.050;2022-07-22T07:14:46;7.03;;;6.32;;
13234;SDS011;6683;48.506;9.050;2022-07-22T07:17:49;6.80;;;6.20;;
13234;SDS011;6683;48.506;9.050;2022-07-22T07:20:51;7.10;;;6.50;;
13234;SDS011;6683;48.506;9.050;2022-07-22T07:23:54;6.63;;;6.00;;
13234;SDS011;6683;48.506;9.050;2022-07-22T07:26:58;7.53;;;6.70;;
13234;SDS011;6683;48.506;9.050;2022-07-22T07:30:01;7.07;;;6.38;;
13234;SDS011;6683;48.506;9.050;2022-07-22T07:33:05;6.95;;;6.43;;
13234;SDS011;6683;48.506;9.050;2022-07-22T07:36:07;6.85;;;6.25;;
13234;SDS011;6683;48.506;9.050;2022-07-22T07:39:10;6.68;;;6.18;;
13234;SDS011;6683;48.506;9.050;2022-07-22T07:42:14;6.78;;;6.18;;
13234;SDS011;6683;48.506;9.050;2022-07-22T07:45:16;6.35;;;5.78;;
13234;SDS011;6683;48.506;9.050;2022-07-22T07:48:19;6.43;;;5.93;;
13234;SDS011;6683;48.506;9.050;2022-07-22T07:51:21;7.07;;;6.38;;
13234;SDS011;6683;48.506;9.050;2022-07-22T07:54:24;5.78;;;5.38;;
13234;SDS011;6683;48.506;9.050;2022-07-22T07:57:28;6.15;;;5.63;;
13234;SDS011;6683;48.506;9.050;2022-07-22T08:00:30;6.70;;;6.03;;
13234;SDS011;6683;48.506;9.050;2022-07-22T08:03:34;6.22;;;5.63;;
13234;SDS011;6683;48.506;9.050;2022-07-22T08:06:36;6.15;;;5.65;;
13234;SDS011;6683;48.506;9.050;2022-07-22T08:09:38;5.60;;;5.20;;
13234;SDS011;6683;48.506;9.050;2022-07-22T08:12:42;5.88;;;5.25;;
13234;SDS011;6683;48.506;9.050;2022-07-22T08:15:45;5.60;;;5.10;;
13234;SDS011;6683;48.506;9.050;2022-07-22T08:18:47;5.18;;;4.78;;
13234;SDS011;6683;48.506;9.050;2022-07-22T08:21:49;6.18;;;5.57;;
13234;SDS011;6683;48.506;9.050;2022-07-22T08:24:52;5.60;;;5.10;;
13234;SDS011;6683;48.506;9.050;2022-07-22T08:27:56;5.30;;;4.90;;
13234;SDS011;6683;48.506;9.050;2022-07-22T08:30:59;5.32;;;4.82;;
13234;SDS011;6683;48.506;9.050;2022-07-22T08:34:01;5.57;;;5.10;;
13234;SDS011;6683;48.506;9.050;2022-07-22T08:37:04;4.90;;;4.50;;
13234;SDS011;6683;48.506;9.050;2022-07-22T08:40:07;4.63;;;4.22;;
13234;SDS011;6683;48.506;9.050;2022-07-22T08:43:12;5.50;;;5.10;;
13234;SDS011;6683;48.506;9.050;2022-07-22T08:46:14;5.15;;;4.70;;
13234;SDS011;6683;48.506;9.050;2022-07-22T08:49:18;4.97;;;4.57;;
13234;SDS011;6683;48.506;9.050;2022-07-22T08:52:21;5.10;;;4.53;;
13234;SDS011;6683;48.506;9.050;2022-07-22T08:55:24;5.22;;;4.72;;
13234;SDS011;6683;48.506;9.050;2022-07-22T08:58:28;5.30;;;4.78;;
13234;SDS011;6683;48.506;9.050;2022-07-22T09:01:31;4.60;;;4.20;;
13234;SDS011;6683;48.506;9.050;2022-07-22T09:04:49;4.72;;;4.43;;
13234;SDS011;6683;48.506;9.050;2022-07-22T09:07:58;4.75;;;4.35;;
13234;SDS011;6683;48.506;9.050;2022-07-22T09:11:14;5.20;;;4.80;;
13234;SDS011;6683;48.506;9.050;2022-07-22T09:14:18;4.88;;;4.47;;
13234;SDS011;6683;48.506;9.050;2022-07-22T09:17:25;4.72;;;4.32;;
13234;SDS011;6683;48.506;9.050;2022-07-22T09:20:29;4.95;;;4.55;;
13234;SDS011;6683;48.506;9.050;2022-07-22T09:23:38;5.00;;;4.50;;
13234;SDS011;6683;48.506;9.050;2022-07-22T09:26:42;5.15;;;4.65;;
13234;SDS011;6683;48.506;9.050;2022-07-22T09:29:47;5.20;;;4.75;;
13234;SDS011;6683;48.506;9.050;2022-07-22T09:32:51;5.22;;;4.72;;
13234;SDS011;6683;48.506;9.050;2022-07-22T09:36:01;5.45;;;4.57;;
13234;SDS011;6683;48.506;9.050;2022-07-22T09:39:07;5.57;;;5.00;;
13234;SDS011;6683;48.506;9.050;2022-07-22T09:42:26;5.03;;;4.63;;
13234;SDS011;6683;48.506;9.050;2022-07-22T09:45:46;5.35;;;4.40;;
13234;SDS011;6683;48.506;9.050;2022-07-22T09:48:50;5.88;;;5.38;;
13234;SDS011;6683;48.506;9.050;2022-07-22T09:51:52;4.97;;;4.57;;
13234;SDS011;6683;48.506;9.050;2022-07-22T09:54:55;4.60;;;4.20;;
13234;SDS011;6683;48.506;9.050;2022-07-22T09:57:58;4.88;;;4.47;;
13234;SDS011;6683;48.506;9.050;2022-07-22T10:01:04;4.95;;;4.55;;
13234;SDS011;6683;48.506;9.050;2022-07-22T10:04:08;5.20;;;4.80;;
13234;SDS011;6683;48.506;9.050;2022-07-22T10:07:13;5.28;;;4.88;;
13234;SDS011;6683;48.506;9.050;2022-07-22T10:10:18;5.00;;;4.60;;
13234;SDS011;6683;48.506;9.050;2022-07-22T10:13:22;4.75;;;4.35;;
13234;SDS011;6683;48.506;9.050;2022-07-22T10:16:26;4.80;;;4.40;;
13234;SDS011;6683;48.506;9.050;2022-07-22T10:19:29;5.68;;;5.18;;
13234;SDS011;6683;48.506;9.050;2022-07-22T10:22:44;5.07;;;4.68;;
13234;SDS011;6683;48.506;9.050;2022-07-22T10:25:54;5.03;;;4.53;;
13234;SDS011;6683;48.506;9.050;2022-07-22T10:29:02;4.88;;;4.57;;
13234;SDS011;6683;48.506;9.050;2022-07-22T10:32:31;5.40;;;4.93;;
13234;SDS011;6683;48.506;9.050;2022-07-22T10:35:34;4.85;;;4.53;;
13234;SDS011;6683;48.506;9.050;2022-07-22T10:38:40;5.38;;;4.88;;
13234;SDS011;6683;48.506;9.050;2022-07-22T10:42:07;5.20;;;4.70;;
13234;SDS011;6683;48.506;9.050;2022-07-22T10:45:09;7.15;;;5.15;;
13234;SDS011;6683;48.506;9.050;2022-07-22T10:48:15;5.13;;;4.72;;
13234;SDS011;6683;48.506;9.050;2022-07-22T10:51:20;4.78;;;4.47;;
13234;SDS011;6683;48.506;9.050;2022-07-22T10:54:24;4.75;;;4.45;;
13234;SDS011;6683;48.506;9.050;2022-07-22T10:57:29;4.75;;;4.35;;
13234;SDS011;6683;48.506;9.050;2022-07-22T11:00:32;4.95;;;4.60;;
13234;SDS011;6683;48.506;9.050;2022-07-22T11:03:38;5.18;;;4.78;;
13234;SDS011;6683;48.506;9.050;2022-07-22T11:06:43;4.97;;;4.68;;
13234;SDS011;6683;48.506;9.050;2022-07-22T11:09:47;5.40;;;5.03;;
13234;SDS011;6683;48.506;9.050;2022-07-22T11:12:50;5.97;;;5.40;;
13234;SDS011;6683;48.506;9.050;2022-07-22T11:15:52;5.50;;;5.10;;
13234;SDS011;6683;48.506;9.050;2022-07-22T11:18:56;5.25;;;4.80;;
13234;SDS011;6683;48.506;9.050;2022-07-22T11:22:01;5.55;;;5.07;;
13234;SDS011;6683;48.506;9.050;2022-07-22T11:25:08;5.20;;;4.80;;
13234;SDS011;6683;48.506;9.050;2022-07-22T11:28:12;5.07;;;4.72;;
13234;SDS011;6683;48.506;9.050;2022-07-22T11:31:16;5.10;;;4.70;;
13234;SDS011;6683;48.506;9.050;2022-07-22T11:34:21;5.55;;;5.15;;
13234;SDS011;6683;48.506;9.050;2022-07-22T11:37:24;5.03;;;4.65;;
13234;SDS011;6683;48.506;9.050;2022-07-22T11:40:31;5.28;;;4.88;;
13234;SDS011;6683;48.506;9.050;2022-07-22T11:43:37;5.68;;;5.28;;
13234;SDS011;6683;48.506;9.050;2022-07-22T11:46:41;5.65;;;5.07;;
13234;SDS011;6683;48.506;9.050;2022-07-22T11:49:46;5.35;;;4.85;;
13234;SDS011;6683;48.506;9.050;2022-07-22T11:52:51;5.55;;;5.15;;
13234;SDS011;6683;48.506;9.050;2022-07-22T11:55:56;4.93;;;4.53;;
13234;SDS011;6683;48.506;9.050;2022-07-22T11:58:59;5.30;;;4.93;;
13234;SDS011;6683;48.506;9.050;2022-07-22T12:02:04;4.70;;;4.38;;
13234;SDS011;6683;48.506;9.050;2022-07-22T12:05:11;5.28;;;4.88;;
13234;SDS011;6683;48.506;9.050;2022-07-22T12:08:13;5.18;;;4.78;;
13234;SDS011;6683;48.506;9.050;2022-07-22T12:11:17;4.68;;;4.38;;
13234;SDS011;6683;48.506;9.050;2022-07-22T12:14:21;4.47;;;4.18;;
13234;SDS011;6683;48.506;9.050;2022-07-22T12:17:27;4.78;;;4.47;;
13234;SDS011;6683;48.506;9.050;2022-07-22T12:20:31;4.97;;;4.57;;
13234;SDS011;6683;48.506;9.050;2022-07-22T12:23:33;4.97;;;4.57;;
13234;SDS011;6683;48.506;9.050;2022-07-22T12:26:36;4.82;;;4.53;;
13234;SDS011;6683;48.506;9.050;2022-07-22T12:29:43;5.38;;;4.97;;
13234;SDS011;6683;48.506;9.050;2022-07-22T12:32:48;4.93;;;4.47;;
13234;SDS011;6683;48.506;9.050;2022-07-22T12:36:02;5.30;;;4.90;;
13234;SDS011;6683;48.506;9.050;2022-07-22T12:39:13;4.35;;;4.05;;
13234;SDS011;6683;48.506;9.050;2022-07-22T12:42:18;4.95;;;4.55;;
13234;SDS011;6683;48.506;9.050;2022-07-22T12:45:21;4.88;;;4.47;;
13234;SDS011;6683;48.506;9.050;2022-07-22T12:48:27;5.25;;;4.85;;
13234;SDS011;6683;48.506;9.050;2022-07-22T12:51:31;4.75;;;4.45;;
13234;SDS011;6683;48.506;9.050;2022-07-22T12:54:34;4.93;;;4.53;;
13234;SDS011;6683;48.506;9.050;2022-07-22T12:57:37;4.90;;;4.43;;
13234;SDS011;6683;48.506;9.050;2022-07-22T13:00:40;5.38;;;4.53;;
13234;SDS011;6683;48.506;9.050;2022-07-22T13:03:45;4.25;;;3.95;;
13234;SDS011;6683;48.506;9.050;2022-07-22T13:06:49;4.70;;;4.38;;
13234;SDS011;6683;48.506;9.050;2022-07-22T13:09:52;5.13;;;4.43;;
13234;SDS011;6683;48.506;9.050;2022-07-22T13:12:55;4.50;;;4.20;;
13234;SDS011;6683;48.506;9.050;2022-07-22T13:15:57;5.45;;;5.05;;
13234;SDS011;6683;48.506;9.050;2022-07-22T13:18:59;5.15;;;4.75;;
13234;SDS011;6683;48.506;9.050;2022-07-22T13:22:04;4.57;;;4.28;;
13234;SDS011;6683;48.506;9.050;2022-07-22T13:25:07;5.07;;;4.78;;
13234;SDS011;6683;48.506;9.050;2022-07-22T13:28:10;5.13;;;4.72;;
13234;SDS011;6683;48.506;9.050;2022-07-22T13:31:12;5.18;;;4.78;;
13234;SDS011;6683;48.506;9.050;2022-07-22T13:34:15;4.57;;;4.28;;
13234;SDS011;6683;48.506;9.050;2022-07-22T13:37:18;4.60;;;4.30;;
13234;SDS011;6683;48.506;9.050;2022-07-22T13:40:22;4.55;;;4.25;;
13234;SDS011;6683;48.506;9.050;2022-07-22T13:43:24;4.97;;;4.68;;
13234;SDS011;6683;48.506;9.050;2022-07-22T13:46:26;4.38;;;4.07;;
13234;SDS011;6683;48.506;9.050;2022-07-22T13:49:29;4.65;;;4.35;;
13234;SDS011;6683;48.506;9.050;2022-07-22T13:52:33;4.55;;;4.25;;
13234;SDS011;6683;48.506;9.050;2022-07-22T13:55:36;4.72;;;4.43;;
13234;SDS011;6683;48.506;9.050;2022-07-22T13:58:39;4.25;;;3.95;;
13234;SDS011;6683;48.506;9.050;2022-07-22T14:01:42;4.78;;;4.38;;
13234;SDS011;6683;48.506;9.050;2022-07-22T14:04:44;4.28;;;3.97;;
13234;SDS011;6683;48.506;9.050;2022-07-22T14:07:48;4.70;;;4.30;;
13234;SDS011;6683;48.506;9.050;2022-07-22T14:10:50;4.60;;;4.30;;
13234;SDS011;6683;48.506;9.050;2022-07-22T14:13:53;3.90;;;3.70;;
13234;SDS011;6683;48.506;9.050;2022-07-22T14:16:55;4.47;;;4.18;;
13234;SDS011;6683;48.506;9.050;2022-07-22T14:19:58;4.38;;;4.07;;
13234;SDS011;6683;48.506;9.050;2022-07-22T14:23:02;4.32;;;4.03;;
13234;SDS011;6683;48.506;9.050;2022-07-22T14:26:06;4.93;;;4.40;;
13234;SDS011;6683;48.506;9.050;2022-07-22T14:29:09;4.55;;;4.25;;
13234;SDS011;6683;48.506;9.050;2022-07-22T14:32:11;4.43;;;4.13;;
13234;SDS011;6683;48.506;9.050;2022-07-22T14:35:13;4.55;;;4.10;;
13234;SDS011;6683;48.506;9.050;2022-07-22T14:38:17;4.60;;;4.30;;
13234;SDS011;6683;48.506;9.050;2022-07-22T14:41:19;4.72;;;4.35;;
13234;SDS011;6683;48.506;9.050;2022-07-22T14:44:22;4.45;;;4.15;;
13234;SDS011;6683;48.506;9.050;2022-07-22T14:47:24;5.20;;;4.78;;
13234;SDS011;6683;48.506;9.050;2022-07-22T14:50:28;4.75;;;4.45;;
13234;SDS011;6683;48.506;9.050;2022-07-22T14:53:32;5.13;;;4.72;;
13234;SDS011;6683;48.506;9.050;2022-07-22T14:56:34;4.93;;;4.43;;
13234;SDS011;6683;48.506;9.050;2022-07-22T14:59:37;6.25;;;4.40;;
13234;SDS011;6683;48.506;9.050;2022-07-22T15:02:39;4.68;;;4.28;;
13234;SDS011;6683;48.506;9.050;2022-07-22T15:05:42;4.53;;;4.22;;
13234;SDS011;6683;48.506;9.050;2022-07-22T15:08:45;5.22;;;4.82;;
13234;SDS011;6683;48.506;9.050;2022-07-22T15:11:47;4.63;;;4.32;;
13234;SDS011;6683;48.506;9.050;2022-07-22T15:14:52;4.78;;;4.43;;
13234;SDS011;6683;48.506;9.050;2022-07-22T15:17:55;4.78;;;4.38;;
13234;SDS011;6683;48.506;9.050;2022-07-22T15:20:58;5.25;;;4.85;;
13234;SDS011;6683;48.506;9.050;2022-07-22T15:24:02;4.45;;;4.15;;
13234;SDS011;6683;48.506;9.050;2022-07-22T15:27:04;4.80;;;4.50;;
13234;SDS011;6683;48.506;9.050;2022-07-22T15:30:08;4.35;;;4.05;;
13234;SDS011;6683;48.506;9.050;2022-07-22T15:33:12;4.50;;;4.20;;
13234;SDS011;6683;48.506;9.050;2022-07-22T15:36:14;5.13;;;4.65;;
13234;SDS011;6683;48.506;9.050;2022-07-22T15:39:19;5.00;;;4.60;;
13234;SDS011;6683;48.506;9.050;2022-07-22T15:42:22;4.70;;;4.32;;
13234;SDS011;6683;48.506;9.050;2022-07-22T15:45:24;4.78;;;4.25;;
13234;SDS011;6683;48.506;9.050;2022-07-22T15:48:27;4.80;;;4.40;;
13234;SDS011;6683;48.506;9.050;2022-07-22T15:51:30;4.78;;;4.38;;
13234;SDS011;6683;48.506;9.050;2022-07-22T15:54:33;4.63;;;4.30;;
13234;SDS011;6683;48.506;9.050;2022-07-22T15:57:37;4.70;;;4.40;;
13234;SDS011;6683;48.506;9.050;2022-07-22T16:00:57;4.63;;;4.18;;
13234;SDS011;6683;48.506;9.050;2022-07-22T16:04:00;5.45;;;4.28;;
13234;SDS011;6683;48.506;9.050;2022-07-22T16:07:02;4.85;;;4.45;;
13234;SDS011;6683;48.506;9.050;2022-07-22T16:10:07;4.95;;;4.45;;
13234;SDS011;6683;48.506;9.050;2022-07-22T16:13:10;4.72;;;4.32;;
13234;SDS011;6683;48.506;9.050;2022-07-22T16:16:13;5.07;;;4.57;;
13234;SDS011;6683;48.506;9.050;2022-07-22T16:19:15;4.38;;;4.07;;
13234;SDS011;6683;48.506;9.050;2022-07-22T16:22:17;4.25;;;3.95;;
13234;SDS011;6683;48.506;9.050;2022-07-22T16:25:21;4.72;;;4.25;;
13234;SDS011;6683;48.506;9.050;2022-07-22T16:28:24;5.00;;;4.60;;
13234;SDS011;6683;48.506;9.050;2022-07-22T16:31:26;4.40;;;4.10;;
13234;SDS011;6683;48.506;9.050;2022-07-22T16:34:29;4.53;;;4.13;;
13234;SDS011;6683;48.506;9.050;2022-07-22T16:37:32;4.20;;;3.88;;
13234;SDS011;6683;48.506;9.050;2022-07-22T16:40:36;4.30;;;4.00;;
13234;SDS011;6683;48.506;9.050;2022-07-22T16:43:39;4.53;;;4.18;;
13234;SDS011;6683;48.506;9.050;2022-07-22T16:46:41;4.63;;;4.22;;
13234;SDS011;6683;48.506;9.050;2022-07-22T16:49:45;4.30;;;4.00;;
13234;SDS011;6683;48.506;9.050;2022-07-22T16:52:48;4.47;;;4.10;;
13234;SDS011;6683;48.506;9.050;2022-07-22T16:55:52;4.38;;;4.07;;
13234;SDS011;6683;48.506;9.050;2022-07-22T16:58:54;4.38;;;4.07;;
13234;SDS011;6683;48.506;9.050;2022-07-22T17:01:57;4.78;;;4.47;;
13234;SDS011;6683;48.506;9.050;2022-07-22T17:04:59;4.00;;;3.70;;
13234;SDS011;6683;48.506;9.050;2022-07-22T17:08:02;4.95;;;4.55;;
13234;SDS011;6683;48.506;9.050;2022-07-22T17:11:07;4.93;;;4.53;;
13234;SDS011;6683;48.506;9.050;2022-07-22T17:14:09;4.18;;;3.88;;
13234;SDS011;6683;48.506;9.050;2022-07-22T17:17:12;4.22;;;3.92;;
13234;SDS011;6683;48.506;9.050;2022-07-22T17:20:15;4.57;;;4.18;;
13234;SDS011;6683;48.506;9.050;2022-07-22T17:23:17;4.60;;;4.20;;
13234;SDS011;6683;48.506;9.050;2022-07-22T17:26:21;4.40;;;4.00;;
13234;SDS011;6683;48.506;9.050;2022-07-22T17:29:26;4.22;;;3.92;;
13234;SDS011;6683;48.506;9.050;2022-07-22T17:32:28;4.22;;;3.92;;
13234;SDS011;6683;48.506;9.050;2022-07-22T17:35:31;4.28;;;3.90;;
13234;SDS011;6683;48.506;9.050;2022-07-22T17:38:38;4.85;;;4.53;;
13234;SDS011;6683;48.506;9.050;2022-07-22T17:41:42;4.43;;;4.00;;
13234;SDS011;6683;48.506;9.050;2022-07-22T17:44:45;4.03;;;3.72;;
13234;SDS011;6683;48.506;9.050;2022-07-22T17:47:48;4.53;;;4.15;;
13234;SDS011;6683;48.506;9.050;2022-07-22T17:50:51;4.78;;;4.38;;
13234;SDS011;6683;48.506;9.050;2022-07-22T17:53:54;4.20;;;3.90;;
13234;SDS011;6683;48.506;9.050;2022-07-22T17:56:58;4.60;;;4.20;;
13234;SDS011;6683;48.506;9.050;2022-07-22T18:00:00;4.30;;;4.00;;
13234;SDS011;6683;48.506;9.050;2022-07-22T18:03:04;4.38;;;4.07;;
13234;SDS011;6683;48.506;9.050;2022-07-22T18:06:06;4.88;;;4.47;;
13234;SDS011;6683;48.506;9.050;2022-07-22T18:09:09;4.93;;;3.95;;
13234;SDS011;6683;48.506;9.050;2022-07-22T18:12:13;4.35;;;4.03;;
13234;SDS011;6683;48.506;9.050;2022-07-22T18:15:15;4.45;;;4.07;;
13234;SDS011;6683;48.506;9.050;2022-07-22T18:18:18;4.55;;;4.20;;
13234;SDS011;6683;48.506;9.050;2022-07-22T18:21:21;5.05;;;4.20;;
13234;SDS011;6683;48.506;9.050;2022-07-22T18:24:23;5.05;;;3.95;;
13234;SDS011;6683;48.506;9.050;2022-07-22T18:27:27;3.85;;;3.55;;
13234;SDS011;6683;48.506;9.050;2022-07-22T18:30:29;4.53;;;4.15;;
13234;SDS011;6683;48.506;9.050;2022-07-22T18:33:32;4.45;;;4.15;;
13234;SDS011;6683;48.506;9.050;2022-07-22T18:36:34;4.88;;;4.25;;
13234;SDS011;6683;48.506;9.050;2022-07-22T18:39:37;4.55;;;4.20;;
13234;SDS011;6683;48.506;9.050;2022-07-22T18:42:41;4.15;;;3.85;;